Time;durP1;ratioP1;P1;durP2;ratioP2;P2;SDS_P1;SDS_P2;PMS_P1;PMS_P2;Temp;Humidity;BMP_temperature;BMP_pressure;BME280_temperature;BME280_humidity;BME280_pressure;Samples;Min_cycle;Max_cycle;Signal;HPM_P1;HPM_P2
2023/04/25 00:00:26;;;;;;;23.30;3.83;;;6.30;99.90;;;;;;5018462;28;20045;-73
2023/04/25 00:02:51;;;;;;;20.85;3.58;;;6.30;99.90;;;;;;5021749;28;20042;-72
2023/04/25 00:05:17;;;;;;;17.30;3.88;;;6.50;99.90;;;;;;5021305;28;20045;-73
2023/04/25 00:07:43;;;;;;;19.27;3.42;;;6.30;99.90;;;;;;5016919;28;20084;-77
2023/04/25 00:10:10;;;;;;;23.55;4.35;;;6.30;99.90;;;;;;5018469;28;20053;-72
2023/04/25 00:12:37;;;;;;;22.95;3.60;;;6.30;99.90;;;;;;5019843;28;20053;-73
2023/04/25 00:15:03;;;;;;;28.45;4.75;;;6.30;99.90;;;;;;5019919;28;20124;-72
2023/04/25 00:17:29;;;;;;;23.20;4.53;;;6.30;99.90;;;;;;5021550;28;20041;-73
2023/04/25 00:19:55;;;;;;;16.38;3.60;;;6.30;99.90;;;;;;5018729;28;20042;-72
2023/04/25 00:22:21;;;;;;;29.20;4.55;;;6.30;99.90;;;;;;5000090;28;20058;-71
2023/04/25 00:24:47;;;;;;;28.60;4.22;;;6.30;99.90;;;;;;5019253;28;20052;-73
2023/04/25 00:27:13;;;;;;;29.13;4.82;;;6.30;99.90;;;;;;5020665;28;20123;-74
2023/04/25 00:29:39;;;;;;;22.15;3.92;;;6.30;99.90;;;;;;5020058;28;20053;-72
2023/04/25 00:32:05;;;;;;;22.52;3.53;;;6.30;99.90;;;;;;5018850;28;20045;-72
2023/04/25 00:34:30;;;;;;;18.25;3.13;;;6.30;99.90;;;;;;5017869;28;20050;-72
2023/04/25 00:36:56;;;;;;;24.20;3.35;;;6.20;99.90;;;;;;5019026;28;20055;-74
2023/04/25 00:39:22;;;;;;;23.85;3.17;;;6.20;99.90;;;;;;5016706;28;20512;-73
2023/04/25 00:41:48;;;;;;;15.63;3.67;;;6.20;99.90;;;;;;5016800;28;20056;-75
2023/04/25 00:44:16;;;;;;;20.50;3.97;;;6.10;99.90;;;;;;5019739;28;20149;-76
2023/04/25 00:46:42;;;;;;;20.20;3.65;;;6.20;99.90;;;;;;5021031;28;20497;-74
2023/04/25 00:49:08;;;;;;;19.02;3.13;;;6.10;99.90;;;;;;5020450;28;20047;-73
2023/04/25 00:51:35;;;;;;;18.25;3.83;;;6.10;99.90;;;;;;5020281;28;20041;-72
2023/04/25 00:54:01;;;;;;;21.25;3.15;;;6.00;99.90;;;;;;5020195;28;20515;-73
2023/04/25 00:56:27;;;;;;;24.92;3.45;;;6.10;99.90;;;;;;5023281;28;20140;-72
2023/04/25 00:58:56;;;;;;;19.73;3.00;;;6.00;99.90;;;;;;5024377;28;20124;-73
2023/04/25 01:01:22;;;;;;;19.80;2.92;;;6.00;99.90;;;;;;5022192;28;20052;-72
2023/04/25 01:03:49;;;;;;;20.70;2.65;;;5.90;99.90;;;;;;5021317;28;20038;-73
2023/04/25 01:06:16;;;;;;;21.08;2.90;;;5.90;99.90;;;;;;5021789;28;20054;-73
2023/04/25 01:08:42;;;;;;;22.02;3.42;;;5.90;99.90;;;;;;5023309;28;20041;-71
2023/04/25 01:11:08;;;;;;;16.80;3.22;;;5.90;99.90;;;;;;5023329;28;20560;-72
2023/04/25 01:13:34;;;;;;;18.02;3.22;;;5.80;99.90;;;;;;5023256;28;20389;-72
2023/04/25 01:16:01;;;;;;;20.52;3.55;;;5.80;99.90;;;;;;5019658;28;20037;-74
2023/04/25 01:18:27;;;;;;;15.32;2.65;;;5.80;99.90;;;;;;5021196;28;20078;-72
2023/04/25 01:20:53;;;;;;;15.85;2.63;;;5.80;99.90;;;;;;5025900;28;20563;-72
2023/04/25 01:23:20;;;;;;;19.15;2.80;;;5.80;99.90;;;;;;5021234;28;20731;-73
2023/04/25 01:25:47;;;;;;;19.45;2.78;;;5.80;99.90;;;;;;5021812;28;20457;-72
2023/04/25 01:28:13;;;;;;;24.80;2.88;;;5.70;99.90;;;;;;5022755;28;20033;-73
2023/04/25 01:30:39;;;;;;;20.13;2.35;;;5.70;99.90;;;;;;5020544;28;20060;-73
2023/04/25 01:33:05;;;;;;;28.45;3.38;;;5.70;99.90;;;;;;5020953;28;20054;-73
2023/04/25 01:35:31;;;;;;;18.23;3.28;;;5.70;99.90;;;;;;5021410;28;20045;-72
2023/04/25 01:37:57;;;;;;;14.93;2.42;;;5.70;99.90;;;;;;5021791;28;20397;-72
2023/04/25 01:40:24;;;;;;;23.52;2.88;;;5.70;99.90;;;;;;5024173;28;20084;-73
2023/04/25 01:42:50;;;;;;;14.05;3.22;;;5.70;99.90;;;;;;5022511;28;20045;-72
2023/04/25 01:45:16;;;;;;;22.13;3.03;;;5.70;99.90;;;;;;5020719;28;20099;-73
2023/04/25 01:47:43;;;;;;;18.95;3.20;;;5.60;99.90;;;;;;5002379;28;20133;-72
2023/04/25 01:50:11;;;;;;;20.27;2.63;;;5.70;99.90;;;;;;5021426;28;20065;-73
2023/04/25 01:52:36;;;;;;;11.52;2.65;;;5.60;99.90;;;;;;5023964;28;20052;-73
2023/04/25 01:55:02;;;;;;;19.58;2.58;;;5.60;99.90;;;;;;5023690;28;20049;-72
2023/04/25 01:57:28;;;;;;;15.60;2.40;;;5.60;99.90;;;;;;5021089;28;20052;-74
2023/04/25 01:59:59;;;;;;;19.67;2.65;;;5.60;99.90;;;;;;5020710;28;20740;-75
2023/04/25 02:02:25;;;;;;;15.85;2.80;;;5.60;99.90;;;;;;5016948;28;20057;-72
2023/04/25 02:04:51;;;;;;;19.08;2.47;;;5.90;99.90;;;;;;5020196;28;20121;-73
2023/04/25 02:07:17;;;;;;;16.42;2.70;;;5.60;99.90;;;;;;5002757;28;20137;-73
2023/04/25 02:09:43;;;;;;;19.98;3.45;;;5.60;99.90;;;;;;5023456;28;20117;-73
2023/04/25 02:12:10;;;;;;;20.30;3.33;;;5.60;99.90;;;;;;5021492;28;20121;-72
2023/04/25 02:14:36;;;;;;;16.90;2.25;;;5.60;99.90;;;;;;5022044;28;20053;-72
2023/04/25 02:17:02;;;;;;;21.95;2.75;;;5.60;99.90;;;;;;5019759;28;20052;-71
2023/04/25 02:19:27;;;;;;;15.70;3.03;;;5.60;99.90;;;;;;5020417;28;20042;-72
2023/04/25 02:21:53;;;;;;;18.92;3.00;;;5.60;99.90;;;;;;5022770;28;20115;-72
2023/04/25 02:24:19;;;;;;;16.98;2.88;;;5.60;99.90;;;;;;5023202;28;20056;-73
2023/04/25 02:26:46;;;;;;;22.85;2.88;;;5.50;99.90;;;;;;5016390;28;20476;-73
2023/04/25 02:29:12;;;;;;;18.77;3.15;;;5.50;99.90;;;;;;5022876;28;20053;-73
2023/04/25 02:31:38;;;;;;;16.70;2.53;;;5.60;99.90;;;;;;5022550;28;20057;-72
2023/04/25 02:34:04;;;;;;;16.17;2.25;;;6.00;99.90;;;;;;5020575;28;20050;-72
2023/04/25 02:36:32;;;;;;;14.85;2.35;;;5.50;99.90;;;;;;5020174;28;20089;-72
2023/04/25 02:38:57;;;;;;;16.17;2.72;;;5.60;99.90;;;;;;5021052;28;20061;-72
2023/04/25 02:41:23;;;;;;;16.10;2.35;;;5.50;99.90;;;;;;5022027;28;20400;-72
2023/04/25 02:43:48;;;;;;;22.38;3.05;;;5.60;99.90;;;;;;5019287;28;20053;-73
2023/04/25 02:46:14;;;;;;;20.27;3.05;;;5.60;99.90;;;;;;5022210;28;20416;-73
2023/04/25 02:48:40;;;;;;;16.02;2.75;;;5.50;99.90;;;;;;5021444;28;20037;-73
2023/04/25 02:51:06;;;;;;;16.02;2.22;;;5.50;99.90;;;;;;5019770;28;20046;-72
2023/04/25 02:53:31;;;;;;;20.23;4.45;;;5.50;99.90;;;;;;5019225;28;20057;-72
2023/04/25 02:55:58;;;;;;;18.52;2.95;;;5.50;99.90;;;;;;5017804;28;20060;-72
2023/04/25 02:58:25;;;;;;;16.55;2.53;;;5.50;99.90;;;;;;5020608;28;20046;-73
2023/04/25 03:00:50;;;;;;;20.40;2.20;;;5.50;99.90;;;;;;5019497;28;20050;-74
2023/04/25 03:03:21;;;;;;;11.10;2.15;;;5.50;99.90;;;;;;5026275;28;20403;-73
2023/04/25 03:05:50;;;;;;;15.52;2.45;;;5.50;99.90;;;;;;5019360;28;20133;-73
2023/04/25 03:08:16;;;;;;;23.83;2.92;;;5.50;99.90;;;;;;5019566;28;20081;-74
2023/04/25 03:10:41;;;;;;;15.27;2.78;;;5.50;99.90;;;;;;5021356;28;20080;-80
2023/04/25 03:13:07;;;;;;;13.95;1.83;;;5.50;99.90;;;;;;5018502;28;20041;-73
2023/04/25 03:15:33;;;;;;;12.80;2.55;;;5.50;99.90;;;;;;5020162;28;20053;-73
2023/04/25 03:17:59;;;;;;;10.73;1.80;;;5.50;99.90;;;;;;5020960;28;20064;-74
2023/04/25 03:20:24;;;;;;;10.85;1.80;;;5.40;99.90;;;;;;5022374;28;20128;-77
2023/04/25 03:22:50;;;;;;;10.25;1.90;;;5.40;99.90;;;;;;5014719;28;20038;-73
2023/04/25 03:25:16;;;;;;;12.27;2.08;;;5.40;99.90;;;;;;5010858;28;20054;-73
2023/04/25 03:27:41;;;;;;;8.00;1.73;;;5.40;99.90;;;;;;5019441;28;20503;-73
2023/04/25 03:30:07;;;;;;;11.82;1.70;;;5.30;99.90;;;;;;5021977;28;20049;-73
2023/04/25 03:32:34;;;;;;;11.20;2.00;;;5.30;99.90;;;;;;5021914;28;20450;-74
2023/04/25 03:35:00;;;;;;;11.35;2.10;;;5.60;99.90;;;;;;5013145;28;20504;-74
2023/04/25 03:37:26;;;;;;;9.30;1.95;;;5.30;99.90;;;;;;5022080;28;20041;-74
2023/04/25 03:39:51;;;;;;;10.95;1.95;;;5.30;99.90;;;;;;5020417;28;20053;-73
2023/04/25 03:42:17;;;;;;;12.48;2.08;;;5.90;99.90;;;;;;5014386;28;20056;-74
2023/04/25 03:44:43;;;;;;;14.32;1.90;;;5.20;99.90;;;;;;5021948;28;20055;-74
2023/04/25 03:47:09;;;;;;;9.63;1.88;;;5.20;99.90;;;;;;5018788;28;20045;-74
2023/04/25 03:49:35;;;;;;;9.10;1.77;;;5.20;99.90;;;;;;5018561;28;20771;-74
2023/04/25 03:52:02;;;;;;;12.82;2.05;;;5.30;99.90;;;;;;5018676;28;20061;-73
2023/04/25 03:54:27;;;;;;;13.95;1.88;;;5.10;99.90;;;;;;5020599;28;20148;-73
2023/04/25 03:56:53;;;;;;;11.38;1.45;;;5.10;99.90;;;;;;5014426;28;20132;-74
2023/04/25 03:59:18;;;;;;;10.85;1.52;;;5.00;99.90;;;;;;5020616;28;20046;-73
2023/04/25 04:01:44;;;;;;;10.63;1.77;;;5.00;99.90;;;;;;5017156;28;20397;-73
2023/04/25 04:04:10;;;;;;;16.00;2.42;;;4.90;99.90;;;;;;5018219;28;20050;-73
2023/04/25 04:06:36;;;;;;;12.25;2.03;;;4.90;99.90;;;;;;5017810;28;20046;-73
2023/04/25 04:09:02;;;;;;;12.10;2.22;;;4.90;99.90;;;;;;5016941;28;20117;-73
2023/04/25 04:11:28;;;;;;;11.30;2.60;;;5.10;99.90;;;;;;5019104;28;20208;-72
2023/04/25 04:13:53;;;;;;;12.15;1.95;;;5.10;99.90;;;;;;5021637;28;20176;-73
2023/04/25 04:16:19;;;;;;;13.65;1.92;;;4.90;99.90;;;;;;5021313;28;20479;-73
2023/04/25 04:18:45;;;;;;;14.48;2.40;;;4.90;99.90;;;;;;5017620;28;20107;-73
2023/04/25 04:21:11;;;;;;;9.82;1.70;;;5.00;99.90;;;;;;4995026;28;20053;-77
2023/04/25 04:23:37;;;;;;;18.77;2.60;;;4.90;99.90;;;;;;5017603;28;20064;-73
2023/04/25 04:26:03;;;;;;;11.10;1.90;;;4.80;99.90;;;;;;5011116;28;20046;-72
2023/04/25 04:28:29;;;;;;;14.48;1.55;;;4.80;99.90;;;;;;5022213;28;20048;-72
2023/04/25 04:30:55;;;;;;;15.02;1.83;;;4.80;99.90;;;;;;5024104;28;20050;-73
2023/04/25 04:33:21;;;;;;;9.38;1.73;;;4.70;99.90;;;;;;5026447;28;20068;-72
2023/04/25 04:35:46;;;;;;;18.00;2.30;;;4.70;99.90;;;;;;5021700;28;20476;-73
2023/04/25 04:38:15;;;;;;;12.00;1.83;;;4.60;99.90;;;;;;5023813;28;20045;-72
2023/04/25 04:40:43;;;;;;;10.30;1.70;;;4.60;99.90;;;;;;5025093;28;20484;-72
2023/04/25 04:43:10;;;;;;;16.67;2.28;;;4.60;99.90;;;;;;5014801;28;20075;-72
2023/04/25 04:45:36;;;;;;;14.85;2.15;;;4.60;99.90;;;;;;5019991;28;20564;-72
2023/04/25 04:48:02;;;;;;;10.20;1.83;;;4.60;99.90;;;;;;5022272;28;20052;-73
2023/04/25 04:50:28;;;;;;;14.02;2.00;;;4.50;99.90;;;;;;5025180;28;20138;-73
2023/04/25 04:52:55;;;;;;;11.32;2.00;;;4.50;99.90;;;;;;5024801;28;20065;-73
2023/04/25 04:55:20;;;;;;;11.55;2.17;;;4.50;99.90;;;;;;5016295;28;20401;-73
2023/04/25 04:57:46;;;;;;;13.18;2.25;;;4.50;99.90;;;;;;5021550;28;20762;-73
2023/04/25 05:00:12;;;;;;;17.25;2.40;;;4.50;99.90;;;;;;5020614;28;20050;-73
2023/04/25 05:02:38;;;;;;;9.32;1.80;;;4.50;99.90;;;;;;5024768;28;20037;-72
2023/04/25 05:05:05;;;;;;;17.25;1.88;;;5.00;99.90;;;;;;5024948;28;20076;-73
2023/04/25 05:07:30;;;;;;;14.48;2.28;;;4.60;99.90;;;;;;5021082;28;20091;-73
2023/04/25 05:09:56;;;;;;;14.75;2.30;;;4.60;99.90;;;;;;5018226;28;20076;-73
2023/04/25 05:12:22;;;;;;;13.50;2.28;;;4.70;99.90;;;;;;5024469;28;20666;-73
2023/04/25 05:14:47;;;;;;;12.85;2.33;;;4.70;99.90;;;;;;5020351;28;20058;-72
2023/04/25 05:17:13;;;;;;;12.45;2.20;;;4.70;99.90;;;;;;5021237;28;20484;-72
2023/04/25 05:19:39;;;;;;;16.33;2.20;;;4.70;99.90;;;;;;5022799;28;20081;-72
2023/04/25 05:22:05;;;;;;;17.15;2.65;;;4.80;99.90;;;;;;5021351;28;20502;-73
2023/04/25 05:24:30;;;;;;;14.45;1.90;;;4.80;99.90;;;;;;5021061;28;20038;-73
2023/04/25 05:26:56;;;;;;;18.98;2.63;;;4.90;99.90;;;;;;5003528;28;20421;-73
2023/04/25 05:29:22;;;;;;;13.85;2.33;;;5.00;99.90;;;;;;5082471;23;20104;-73
2023/04/25 05:31:48;;;;;;;15.00;2.20;;;5.00;99.90;;;;;;5032426;28;20056;-73
2023/04/25 05:34:13;;;;;;;11.35;1.88;;;5.00;99.90;;;;;;5032598;28;20767;-73
2023/04/25 05:36:39;;;;;;;13.88;2.10;;;5.10;99.90;;;;;;5031957;28;20046;-76
2023/04/25 05:39:06;;;;;;;17.45;2.20;;;5.10;99.90;;;;;;5031682;28;20066;-74
2023/04/25 05:41:31;;;;;;;14.57;2.17;;;5.30;99.90;;;;;;5030756;28;20053;-74
2023/04/25 05:43:57;;;;;;;13.90;1.73;;;5.30;99.90;;;;;;5032134;28;20120;-73
2023/04/25 05:46:25;;;;;;;17.98;2.90;;;5.20;99.90;;;;;;5032027;28;20049;-72
2023/04/25 05:48:51;;;;;;;15.98;2.03;;;5.30;99.90;;;;;;5031788;28;20038;-73
2023/04/25 05:51:18;;;;;;;11.95;2.03;;;5.30;99.90;;;;;;5031968;28;20049;-73
2023/04/25 05:53:44;;;;;;;8.45;2.03;;;5.40;99.90;;;;;;5031931;28;20484;-74
2023/04/25 05:56:09;;;;;;;14.88;2.00;;;5.40;99.90;;;;;;5031608;28;20054;-73
2023/04/25 05:58:35;;;;;;;14.60;2.65;;;5.50;99.90;;;;;;5032022;28;20483;-73
2023/04/25 06:01:02;;;;;;;16.33;2.08;;;5.50;99.90;;;;;;5032051;28;20556;-73
2023/04/25 06:03:28;;;;;;;11.38;2.00;;;5.60;99.90;;;;;;5031750;28;20427;-74
2023/04/25 06:05:53;;;;;;;13.82;2.70;;;5.70;99.90;;;;;;5031678;28;20045;-72
2023/04/25 06:08:19;;;;;;;19.75;2.15;;;6.20;99.90;;;;;;5031746;28;20365;-74
2023/04/25 06:10:45;;;;;;;11.50;1.75;;;5.90;99.90;;;;;;5031887;28;20103;-72
2023/04/25 06:13:11;;;;;;;6.70;1.50;;;6.00;99.90;;;;;;5031308;28;20038;-72
2023/04/25 06:15:36;;;;;;;14.32;2.40;;;6.10;99.90;;;;;;5031748;28;20041;-73
2023/04/25 06:18:02;;;;;;;10.95;1.75;;;6.70;99.90;;;;;;5013988;28;20050;-74
2023/04/25 06:20:28;;;;;;;13.30;1.85;;;6.20;99.90;;;;;;4996680;28;20060;-73
2023/04/25 06:22:53;;;;;;;17.77;2.22;;;6.20;99.90;;;;;;5013504;28;20057;-74
2023/04/25 06:25:20;;;;;;;13.80;1.42;;;6.20;99.90;;;;;;5012763;28;20049;-75
2023/04/25 06:27:45;;;;;;;9.88;1.80;;;6.20;99.90;;;;;;5030965;28;20404;-77
2023/04/25 06:30:12;;;;;;;13.93;2.05;;;6.30;99.90;;;;;;5031383;28;20045;-74
2023/04/25 06:32:38;;;;;;;15.27;2.50;;;6.30;99.90;;;;;;5031165;28;20037;-73
2023/04/25 06:35:05;;;;;;;12.18;1.58;;;6.30;99.90;;;;;;5013215;28;20132;-72
2023/04/25 06:37:30;;;;;;;11.60;1.73;;;6.40;99.90;;;;;;5013078;28;20092;-73
2023/04/25 06:39:56;;;;;;;10.57;1.42;;;6.40;99.90;;;;;;5031229;28;20057;-73
2023/04/25 06:42:22;;;;;;;11.20;1.58;;;6.40;99.90;;;;;;5012802;28;20047;-74
2023/04/25 06:44:47;;;;;;;8.60;1.45;;;6.40;99.90;;;;;;5013227;28;20064;-73
2023/04/25 06:47:13;;;;;;;4.68;1.10;;;6.50;99.90;;;;;;5013101;28;20053;-75
2023/04/25 06:49:39;;;;;;;7.30;1.30;;;6.60;99.90;;;;;;5030017;28;20052;-73
2023/04/25 06:52:05;;;;;;;4.65;1.10;;;6.70;99.90;;;;;;5030996;28;20037;-74
2023/04/25 06:54:30;;;;;;;11.95;1.60;;;6.80;99.90;;;;;;5012988;28;20073;-74
2023/04/25 06:56:56;;;;;;;8.10;1.77;;;6.90;99.90;;;;;;5030124;28;20037;-74
2023/04/25 06:59:22;;;;;;;5.40;1.20;;;6.90;99.90;;;;;;5012796;28;20053;-75
2023/04/25 07:01:48;;;;;;;12.02;1.67;;;7.00;99.90;;;;;;5030667;28;20029;-77
2023/04/25 07:04:13;;;;;;;7.85;1.27;;;7.10;99.90;;;;;;5030644;28;20042;-74
2023/04/25 07:06:42;;;;;;;9.68;1.52;;;7.10;99.90;;;;;;5030708;28;20041;-75
2023/04/25 07:09:11;;;;;;;11.45;1.67;;;7.20;99.90;;;;;;5012305;28;20797;-79
2023/04/25 07:11:37;;;;;;;9.27;1.50;;;7.20;99.90;;;;;;5012414;28;20783;-75
2023/04/25 07:14:03;;;;;;;12.80;1.90;;;7.20;99.90;;;;;;5030783;28;20116;-73
2023/04/25 07:16:29;;;;;;;7.00;1.10;;;7.20;99.90;;;;;;5030601;28;20045;-73
2023/04/25 07:18:55;;;;;;;13.43;1.80;;;7.30;99.90;;;;;;5012849;28;20041;-73
2023/04/25 07:21:21;;;;;;;9.35;1.65;;;7.40;99.90;;;;;;5030316;28;20041;-74
2023/04/25 07:23:46;;;;;;;15.30;1.40;;;7.50;99.90;;;;;;4995763;28;20041;-73
2023/04/25 07:26:12;;;;;;;8.07;1.30;;;7.70;99.90;;;;;;5030509;28;20045;-73
2023/04/25 07:28:38;;;;;;;9.40;1.13;;;7.80;99.90;;;;;;5029770;28;20444;-73
2023/04/25 07:31:03;;;;;;;11.57;1.50;;;7.80;99.90;;;;;;5008970;28;20054;-76
2023/04/25 07:33:29;;;;;;;12.07;1.80;;;7.80;99.90;;;;;;5012728;28;20457;-73
2023/04/25 07:35:55;;;;;;;8.65;1.40;;;7.70;99.90;;;;;;4995466;28;20103;-73
2023/04/25 07:38:22;;;;;;;10.27;1.55;;;7.60;99.90;;;;;;5029782;28;20115;-73
2023/04/25 07:40:48;;;;;;;11.93;1.33;;;7.60;99.90;;;;;;5012186;28;20056;-73
2023/04/25 07:43:16;;;;;;;13.95;1.48;;;7.80;99.90;;;;;;5029411;28;20111;-73
2023/04/25 07:45:46;;;;;;;9.90;0.98;;;7.60;99.90;;;;;;5030046;28;20056;-75
2023/04/25 07:48:16;;;;;;;4.15;0.95;;;7.60;99.90;;;;;;5029507;28;20079;-73
2023/04/25 07:50:41;;;;;;;5.13;0.80;;;7.60;99.90;;;;;;5029975;28;20037;-73
2023/04/25 07:53:07;;;;;;;9.52;0.98;;;7.60;99.90;;;;;;5029670;28;20116;-73
2023/04/25 07:55:33;;;;;;;6.10;1.20;;;7.60;99.90;;;;;;5030163;28;20060;-74
2023/04/25 07:57:58;;;;;;;8.05;0.90;;;7.60;99.90;;;;;;5012803;28;20060;-74
2023/04/25 08:00:24;;;;;;;8.40;1.30;;;7.70;99.90;;;;;;5030407;28;20044;-73
2023/04/25 08:02:50;;;;;;;10.30;1.13;;;8.00;99.90;;;;;;5030754;28;20037;-73
2023/04/25 08:05:16;;;;;;;9.13;1.10;;;8.00;99.90;;;;;;5030217;28;20111;-73
2023/04/25 08:07:43;;;;;;;8.63;1.77;;;8.00;99.90;;;;;;5030279;28;20045;-75
2023/04/25 08:10:09;;;;;;;10.75;1.20;;;8.10;99.90;;;;;;5030298;28;20507;-74
2023/04/25 08:12:35;;;;;;;10.57;1.40;;;8.10;99.90;;;;;;5030467;28;20405;-73
2023/04/25 08:15:00;;;;;;;7.15;1.40;;;8.20;99.90;;;;;;4995542;28;20060;-75
2023/04/25 08:17:26;;;;;;;11.20;1.70;;;8.40;99.90;;;;;;5029995;28;20411;-73
2023/04/25 08:19:52;;;;;;;7.60;1.08;;;8.40;99.90;;;;;;5012301;28;20048;-81
2023/04/25 08:22:17;;;;;;;6.57;1.17;;;8.30;99.90;;;;;;5012276;28;20060;-76
2023/04/25 08:24:43;;;;;;;4.13;0.90;;;8.00;99.90;;;;;;5029806;28;20047;-73
2023/04/25 08:27:09;;;;;;;4.53;0.93;;;7.80;99.90;;;;;;5011838;28;20081;-73
2023/04/25 08:29:38;;;;;;;2.90;0.90;;;8.20;99.90;;;;;;5029764;28;20068;-74
2023/04/25 08:32:04;;;;;;;6.07;0.80;;;7.90;99.90;;;;;;5012570;28;20064;-74
2023/04/25 08:34:29;;;;;;;7.47;0.93;;;8.20;99.90;;;;;;5029864;28;20563;-80
2023/04/25 08:36:55;;;;;;;4.05;0.70;;;8.50;99.90;;;;;;5029981;28;20053;-79
2023/04/25 08:39:21;;;;;;;4.28;0.73;;;8.60;99.90;;;;;;5030004;28;20041;-75
2023/04/25 08:41:47;;;;;;;7.00;1.67;;;8.30;99.90;;;;;;5029878;28;20137;-75
2023/04/25 08:44:13;;;;;;;6.45;1.15;;;8.00;99.90;;;;;;5023224;28;20060;-74
2023/04/25 08:46:42;;;;;;;4.65;0.70;;;7.90;99.90;;;;;;5027023;28;20481;-74
2023/04/25 08:49:11;;;;;;;5.28;0.77;;;7.90;99.90;;;;;;5011603;28;20049;-73
2023/04/25 08:51:47;;;;;;;2.60;0.50;;;8.00;99.90;;;;;;5029662;28;20045;-81
2023/04/25 08:54:14;;;;;;;7.63;0.80;;;8.10;99.90;;;;;;5028878;28;20053;-72
2023/04/25 08:56:43;;;;;;;4.97;0.80;;;8.40;99.90;;;;;;4995781;28;20154;-75
2023/04/25 08:59:10;;;;;;;5.63;1.00;;;8.50;99.90;;;;;;5011645;28;20050;-74
2023/04/25 09:01:36;;;;;;;7.43;0.98;;;8.60;99.90;;;;;;5029142;28;20041;-77
2023/04/25 09:04:02;;;;;;;2.42;0.60;;;8.70;99.90;;;;;;5029981;28;20048;-73
2023/04/25 09:06:30;;;;;;;4.38;0.82;;;8.80;99.90;;;;;;5029720;28;20049;-72
2023/04/25 09:09:06;;;;;;;5.80;1.02;;;9.30;99.90;;;;;;5029294;28;20092;-72
2023/04/25 09:11:32;;;;;;;3.50;0.80;;;9.20;99.90;;;;;;5030504;28;20041;-73
2023/04/25 09:14:30;;;;;;;5.07;1.20;;;9.30;99.90;;;;;;5033488;28;20378;-72
2023/04/25 09:16:56;;;;;;;6.60;1.17;;;9.70;99.90;;;;;;4952426;29;20165;-74
2023/04/25 09:19:35;;;;;;;13.80;1.30;;;9.50;99.90;;;;;;4952661;29;20452;-72
2023/04/25 09:22:02;;;;;;;5.88;0.80;;;10.00;99.90;;;;;;4946001;29;20054;-73
2023/04/25 09:24:32;;;;;;;8.45;1.30;;;10.20;99.90;;;;;;4936823;29;20047;-74
2023/04/25 09:26:58;;;;;;;12.77;1.35;;;10.40;99.90;;;;;;4952196;29;20055;-72
2023/04/25 09:29:34;;;;;;;7.05;1.05;;;10.10;99.90;;;;;;4936549;29;20066;-74
2023/04/25 09:32:24;;;;;;;7.97;1.48;;;9.80;99.90;;;;;;4960184;28;20295;-74
2023/04/25 09:34:55;;;;;;;10.75;1.50;;;9.00;99.90;;;;;;4935977;29;20118;-73
2023/04/25 09:37:27;;;;;;;10.93;2.22;;;8.90;99.90;;;;;;4952411;29;20055;-74
2023/04/25 09:39:55;;;;;;;10.75;1.55;;;8.70;99.90;;;;;;4936400;29;20105;-75
2023/04/25 09:42:31;;;;;;;10.52;1.90;;;8.50;99.90;;;;;;4952380;29;20050;-74
2023/04/25 09:44:57;;;;;;;8.80;1.52;;;9.30;99.90;;;;;;4935820;29;20138;-74
2023/04/25 09:47:24;;;;;;;9.43;1.63;;;9.00;99.90;;;;;;4952071;29;20076;-75
2023/04/25 09:49:51;;;;;;;10.13;1.50;;;9.30;99.90;;;;;;4952242;29;20434;-73
2023/04/25 09:52:19;;;;;;;11.05;1.58;;;10.00;99.90;;;;;;4978269;28;20050;-75
2023/04/25 09:54:46;;;;;;;9.00;1.50;;;9.90;99.90;;;;;;5032598;28;20041;-74
2023/04/25 09:57:21;;;;;;;7.72;2.17;;;10.10;99.90;;;;;;5032790;28;20141;-74
2023/04/25 09:59:49;;;;;;;6.50;1.27;;;10.10;99.90;;;;;;5032784;28;20396;-73
2023/04/25 10:02:20;;;;;;;7.70;1.27;;;10.20;99.90;;;;;;5032435;28;20497;-73
2023/04/25 10:04:48;;;;;;;6.25;1.23;;;10.30;99.90;;;;;;5015067;28;20447;-75
2023/04/25 10:07:14;;;;;;;12.05;2.22;;;10.80;99.90;;;;;;5032276;28;20038;-73
2023/04/25 10:09:41;;;;;;;10.90;1.50;;;10.80;99.90;;;;;;5032510;28;20400;-72
2023/04/25 10:12:08;;;;;;;8.70;1.27;;;11.00;99.90;;;;;;5032086;28;20392;-74
2023/04/25 10:14:34;;;;;;;9.13;1.23;;;11.20;99.90;;;;;;5032188;28;20500;-76
2023/04/25 10:17:01;;;;;;;11.48;1.50;;;11.10;99.90;;;;;;5032364;28;20038;-74
2023/04/25 10:19:27;;;;;;;8.32;1.48;;;11.20;99.90;;;;;;5014021;28;20504;-74
2023/04/25 10:22:05;;;;;;;7.80;1.50;;;11.30;99.90;;;;;;5014485;28;20048;-75
2023/04/25 10:24:32;;;;;;;11.07;1.92;;;11.30;99.90;;;;;;5012341;28;20062;-74
2023/04/25 10:26:58;;;;;;;12.00;1.45;;;11.70;99.90;;;;;;5032484;28;20168;-75
2023/04/25 10:29:25;;;;;;;10.10;1.48;;;11.50;99.90;;;;;;5031857;28;20053;-73
2023/04/25 10:31:51;;;;;;;8.70;1.48;;;11.50;99.90;;;;;;5014101;28;20057;-74
2023/04/25 10:34:17;;;;;;;7.18;1.30;;;11.40;99.90;;;;;;5031722;28;20045;-72
2023/04/25 10:36:50;;;;;;;7.28;1.58;;;11.10;99.90;;;;;;5032112;28;20108;-76
2023/04/25 10:39:22;;;;;;;8.75;1.20;;;11.00;99.90;;;;;;5016450;28;20053;-73
2023/04/25 10:41:53;;;;;;;10.40;1.65;;;10.70;99.90;;;;;;5031746;28;20048;-76
2023/04/25 10:44:18;;;;;;;8.73;1.27;;;10.80;99.90;;;;;;5013236;28;20073;-73
2023/04/25 10:46:46;;;;;;;5.97;1.20;;;10.90;99.90;;;;;;5005603;28;20053;-73
2023/04/25 10:49:34;;;;;;;8.32;1.58;;;10.60;99.90;;;;;;5012209;28;20049;-74
2023/04/25 10:52:15;;;;;;;13.45;1.75;;;10.60;99.90;;;;;;5013282;28;20139;-75
2023/04/25 10:55:06;;;;;;;9.75;1.60;;;10.40;99.90;;;;;;5031659;28;20038;-74
2023/04/25 10:57:42;;;;;;;11.77;1.85;;;9.80;99.90;;;;;;4934329;29;20055;-75
2023/04/25 11:00:12;;;;;;;11.25;1.60;;;9.20;99.90;;;;;;4932260;29;20117;-74
2023/04/25 11:02:58;;;;;;;10.10;1.60;;;9.20;99.90;;;;;;4950803;29;20051;-74
2023/04/25 11:05:53;;;;;;;7.90;1.50;;;8.90;99.90;;;;;;4949923;29;20443;-74
2023/04/25 11:09:29;;;;;;;15.80;2.15;;;9.30;99.90;;;;;;4961960;23;20162;-73
2023/04/25 11:11:59;;;;;;;7.28;1.60;;;9.90;99.90;;;;;;5015458;28;20038;-73
2023/04/25 11:14:26;;;;;;;6.40;1.63;;;10.90;99.90;;;;;;5025546;28;20090;-74
2023/04/25 11:16:56;;;;;;;7.05;1.50;;;10.30;99.90;;;;;;5039434;28;20068;-74
2023/04/25 11:19:23;;;;;;;10.90;1.73;;;10.10;99.90;;;;;;5039590;28;20400;-74
2023/04/25 11:21:48;;;;;;;12.10;1.50;;;10.10;99.90;;;;;;5037811;28;20048;-77
2023/04/25 11:24:16;;;;;;;13.43;1.60;;;10.90;99.90;;;;;;5042237;28;20037;-73
2023/04/25 11:26:42;;;;;;;10.68;1.95;;;10.80;99.90;;;;;;5023289;28;20095;-73
2023/04/25 11:29:08;;;;;;;9.05;1.70;;;11.00;99.90;;;;;;5039398;28;20049;-76
2023/04/25 11:31:34;;;;;;;8.38;1.20;;;10.60;99.90;;;;;;5021558;28;20133;-73
2023/04/25 11:34:00;;;;;;;7.80;0.88;;;10.70;99.90;;;;;;5039460;28;20042;-74
2023/04/25 11:36:26;;;;;;;6.90;1.30;;;10.60;99.90;;;;;;5039461;28;20041;-74
2023/04/25 11:38:52;;;;;;;7.03;1.25;;;11.10;99.90;;;;;;5027494;28;20041;-75
2023/04/25 11:41:19;;;;;;;7.32;1.05;;;10.40;99.90;;;;;;5021899;28;20049;-75
2023/04/25 11:43:46;;;;;;;7.28;1.35;;;10.10;99.90;;;;;;5039333;28;20060;-75
2023/04/25 11:46:11;;;;;;;5.97;1.10;;;10.30;99.90;;;;;;5041714;28;20038;-73
2023/04/25 11:48:41;;;;;;;10.50;1.35;;;10.20;99.90;;;;;;5042806;28;20040;-73
2023/04/25 11:51:07;;;;;;;5.68;1.20;;;10.50;99.90;;;;;;5037850;28;20069;-74
2023/04/25 11:53:34;;;;;;;9.45;1.33;;;10.80;99.90;;;;;;5036144;28;20041;-74
2023/04/25 11:56:00;;;;;;;5.28;1.40;;;11.00;99.90;;;;;;5042113;28;20071;-74
2023/04/25 11:58:26;;;;;;;5.85;1.33;;;11.40;99.90;;;;;;5039040;28;20041;-73
2023/04/25 12:00:52;;;;;;;8.68;1.20;;;11.10;99.90;;;;;;5038858;28;20049;-73
2023/04/25 12:03:19;;;;;;;13.25;1.48;;;11.30;99.90;;;;;;5040679;28;20103;-73
2023/04/25 12:05:45;;;;;;;6.82;1.25;;;11.10;99.90;;;;;;5042528;28;20120;-73
2023/04/25 12:08:15;;;;;;;8.70;1.13;;;11.00;99.90;;;;;;5036593;28;20046;-74
2023/04/25 12:10:43;;;;;;;8.65;1.40;;;10.70;99.90;;;;;;5031094;28;20045;-73
2023/04/25 12:13:22;;;;;;;6.43;1.30;;;10.60;99.90;;;;;;5039464;28;20041;-74
2023/04/25 12:15:48;;;;;;;5.65;1.00;;;10.00;99.90;;;;;;5010515;28;20075;-73
2023/04/25 12:18:14;;;;;;;9.27;1.38;;;9.90;99.90;;;;;;5023205;28;20094;-73
2023/04/25 12:20:42;;;;;;;6.65;0.85;;;9.90;99.90;;;;;;5039961;28;20080;-73
2023/04/25 12:23:07;;;;;;;6.07;1.20;;;10.10;99.90;;;;;;5038277;28;20412;-73
2023/04/25 12:25:40;;;;;;;10.13;1.70;;;10.20;99.90;;;;;;5021242;28;20045;-73
2023/04/25 12:28:28;;;;;;;9.43;1.38;;;10.20;99.90;;;;;;5041849;28;20044;-74
2023/04/25 12:31:01;;;;;;;10.48;1.52;;;10.20;99.90;;;;;;5008584;28;20081;-74
2023/04/25 12:33:35;;;;;;;13.25;1.50;;;10.00;99.90;;;;;;5026314;28;20707;-72
2023/04/25 12:36:12;;;;;;;7.03;1.10;;;10.00;99.90;;;;;;5037913;28;20050;-75
2023/04/25 12:38:40;;;;;;;11.10;1.50;;;9.90;99.90;;;;;;5040818;28;20052;-74
2023/04/25 12:41:06;;;;;;;8.68;1.15;;;10.00;99.90;;;;;;5038455;28;20650;-74
2023/04/25 12:43:32;;;;;;;13.35;1.30;;;9.80;99.90;;;;;;5038120;28;20053;-73
2023/04/25 12:45:58;;;;;;;9.23;1.30;;;9.60;99.90;;;;;;5012588;28;20048;-75
2023/04/25 12:48:24;;;;;;;7.75;1.70;;;10.00;99.90;;;;;;5027210;28;20048;-74